Hovedside
METAR-TAF:

METAR-TAF

Lufthavner :

Værøy helikopterhavn. Tabbisodden

Værøy, Norge

breddegrad: 67-39-16N, lengdegrad: 12-43-37E, høyde over havet: 5 m

Gjeldene værobservasjon

Denne rapporten ble laget for 7 timer og 3 minutter siden, klokken 12:50 UTC
Vind 13 kt fra Sør-sørvest
Temperatur 14°C
Luftfuktighet 94%
Trykk 1004 hPa
Sikt 10 km eller mer
Brutte skyer i en høyde av 4900 ft

METAR: ENVR 161250Z 20013KT 9999 FEW010SCT036 BKN049 14/13 Q1004

Tid: 21:53 (19:53 UTC)


TAF: fraværende

Værobservasjoner og værvarsel for over 4000 flyplasser (METAR- og TAF-rapporter).

Tilgjengelige stasjoner er representert av de røde og gule prikkene på kartet.

Hold musepekeren over prikken for å se navnet på stasjonen.

Klikk så for å se værobservasjoner og -varsler.

For å forandre kartet kan du klikke på den grønne knappen med svart kryss for å zoome inn, på den grønne knappen med strek for å zoome ut, eller på de grønne pilene for å se tilstøtende kart.


METAR-TAF: